createdAt,value
2019-01-30T00:01:49.602Z,10.00
2019-01-30T00:04:54.043Z,11.83
2019-01-30T00:07:58.488Z,11.90
2019-01-30T00:11:02.934Z,8.00
2019-01-30T00:14:08.089Z,9.43
2019-01-30T00:17:12.534Z,11.20
2019-01-30T00:20:17.449Z,8.87
2019-01-30T00:23:22.176Z,10.77
2019-01-30T00:26:26.912Z,10.70
2019-01-30T00:29:31.637Z,8.73
2019-01-30T00:32:36.092Z,10.00
2019-01-30T00:35:40.802Z,8.60
2019-01-30T00:38:45.526Z,11.10
2019-01-30T00:41:49.985Z,12.43
2019-01-30T00:44:54.682Z,8.10
2019-01-30T00:47:59.134Z,8.23
2019-01-30T00:51:03.568Z,9.93
2019-01-30T00:54:08.103Z,10.33
2019-01-30T00:57:12.885Z,9.80
2019-01-30T01:00:26.889Z,8.93
2019-01-30T01:03:31.336Z,8.40
2019-01-30T01:06:35.777Z,9.60
2019-01-30T01:09:40.243Z,9.60
2019-01-30T01:12:45.043Z,8.63
2019-01-30T01:15:51.181Z,9.80
2019-01-30T01:18:55.619Z,8.63
2019-01-30T01:22:00.369Z,7.97
2019-01-30T01:25:09.084Z,7.37
2019-01-30T01:28:13.535Z,10.07
2019-01-30T01:31:18.144Z,6.50
2019-01-30T01:34:22.594Z,9.87
2019-01-30T01:37:27.291Z,9.53
2019-01-30T01:40:31.725Z,7.77
2019-01-30T01:43:36.172Z,7.77
2019-01-30T01:46:40.867Z,8.70
2019-01-30T01:49:45.598Z,11.10
2019-01-30T01:52:50.212Z,11.43
2019-01-30T01:55:54.653Z,11.93
2019-01-30T01:58:59.381Z,8.33
2019-01-30T02:02:04.106Z,9.47
2019-01-30T02:05:13.370Z,8.80
2019-01-30T02:08:17.808Z,9.60
2019-01-30T02:11:22.247Z,9.73
2019-01-30T02:14:26.699Z,7.53
2019-01-30T02:17:31.448Z,8.67
2019-01-30T02:20:36.361Z,8.90
2019-01-30T02:23:40.824Z,9.83
2019-01-30T02:26:45.262Z,9.50
2019-01-30T02:29:49.716Z,8.80
2019-01-30T02:32:54.705Z,10.80
2019-01-30T02:35:59.141Z,10.20
2019-01-30T02:39:05.288Z,10.23
2019-01-30T02:42:09.708Z,9.57
2019-01-30T02:45:17.917Z,8.43
2019-01-30T02:48:22.649Z,11.87
2019-01-30T02:51:27.380Z,10.07
2019-01-30T02:54:32.122Z,11.03
2019-01-30T02:57:36.840Z,12.50
2019-01-30T03:00:41.281Z,9.90
2019-01-30T03:03:45.997Z,10.97
2019-01-30T03:06:50.726Z,15.30
2019-01-30T03:09:55.162Z,10.57
2019-01-30T03:12:59.607Z,10.30
2019-01-30T03:16:04.042Z,8.93
2019-01-30T03:19:08.740Z,10.03
2019-01-30T03:22:13.455Z,8.73
2019-01-30T03:25:20.702Z,10.67
2019-01-30T03:28:25.377Z,10.00
2019-01-30T03:31:30.107Z,9.37
2019-01-30T03:34:34.833Z,8.23
2019-01-30T03:37:39.256Z,7.70
2019-01-30T03:40:43.696Z,7.53
2019-01-30T03:43:48.121Z,8.33
2019-01-30T03:46:52.846Z,8.33
2019-01-30T03:49:57.289Z,8.43
2019-01-30T03:53:01.710Z,8.33
2019-01-30T03:56:06.417Z,6.43
2019-01-30T03:59:10.850Z,9.80
2019-01-30T04:02:15.280Z,8.30
2019-01-30T04:05:19.717Z,8.43
2019-01-30T04:08:24.424Z,6.77
2019-01-30T04:11:28.852Z,8.30
2019-01-30T04:14:33.596Z,7.33
2019-01-30T04:17:38.414Z,11.00
2019-01-30T04:20:42.911Z,7.03
2019-01-30T04:23:47.336Z,6.97
2019-01-30T04:26:51.793Z,7.80
2019-01-30T04:29:56.222Z,7.57
2019-01-30T04:33:01.032Z,8.03
2019-01-30T04:36:05.611Z,6.97
2019-01-30T04:39:10.174Z,7.73
2019-01-30T04:42:14.607Z,7.83
2019-01-30T04:45:26.302Z,11.87
2019-01-30T04:48:30.734Z,7.77
2019-01-30T04:51:35.171Z,8.17
2019-01-30T04:54:39.608Z,8.83
2019-01-30T04:57:44.410Z,9.70
2019-01-30T05:00:48.850Z,6.90
2019-01-30T05:03:53.269Z,8.63
2019-01-30T05:06:57.990Z,7.93
2019-01-30T05:10:02.427Z,7.73
2019-01-30T05:13:06.856Z,6.97
2019-01-30T05:16:11.285Z,6.83
2019-01-30T05:19:15.714Z,9.30
2019-01-30T05:22:20.408Z,9.77
2019-01-30T05:25:25.144Z,10.50
2019-01-30T05:28:29.585Z,9.30
2019-01-30T05:31:34.033Z,9.77
2019-01-30T05:34:38.720Z,7.50
2019-01-30T05:37:43.235Z,8.23
2019-01-30T05:40:47.660Z,8.50
2019-01-30T05:43:52.105Z,8.90
2019-01-30T05:46:56.823Z,9.03
2019-01-30T05:50:01.554Z,9.20
2019-01-30T05:53:06.061Z,9.50
2019-01-30T05:56:10.820Z,13.90
2019-01-30T05:59:15.544Z,12.63
2019-01-30T06:02:20.272Z,12.47
2019-01-30T06:05:25.009Z,15.60
2019-01-30T06:08:29.739Z,11.27
2019-01-30T06:11:34.172Z,11.87
2019-01-30T06:14:38.893Z,10.63
2019-01-30T06:17:43.326Z,9.33
2019-01-30T06:20:48.048Z,12.03
2019-01-30T06:23:52.775Z,11.97
2019-01-30T06:26:57.503Z,11.77
2019-01-30T06:30:02.237Z,13.10
2019-01-30T06:33:06.673Z,11.97
2019-01-30T06:36:11.390Z,9.80
2019-01-30T06:39:15.830Z,15.37
2019-01-30T06:42:20.547Z,10.60
2019-01-30T06:45:25.787Z,14.60
2019-01-30T06:48:30.305Z,17.87
2019-01-30T06:51:35.074Z,11.00
2019-01-30T06:54:41.108Z,20.93
2019-01-30T06:57:45.618Z,14.80
2019-01-30T07:00:52.742Z,16.13
2019-01-30T07:03:56.837Z,12.53
2019-01-30T07:07:01.582Z,13.47
2019-01-30T07:10:16.228Z,12.40
2019-01-30T07:13:20.667Z,11.37
2019-01-30T07:16:25.384Z,11.67
2019-01-30T07:19:29.820Z,13.63
2019-01-30T07:22:34.534Z,15.70
2019-01-30T07:25:39.271Z,13.10
2019-01-30T07:28:43.998Z,12.63
2019-01-30T07:31:48.744Z,12.50
2019-01-30T07:34:53.180Z,14.50
2019-01-30T07:37:58.766Z,16.73
2019-01-30T07:41:03.401Z,13.80
2019-01-30T07:44:08.111Z,15.37
2019-01-30T07:47:12.540Z,15.90
2019-01-30T07:50:17.114Z,13.17
2019-01-30T07:53:21.841Z,9.43
2019-01-30T07:56:28.881Z,8.80
2019-01-30T07:59:32.737Z,9.97
2019-01-30T08:02:37.166Z,8.77
2019-01-30T08:05:41.893Z,12.73
2019-01-30T08:08:46.625Z,18.63
2019-01-30T08:11:51.355Z,13.43
2019-01-30T08:14:55.790Z,9.27
2019-01-30T08:18:00.508Z,11.97
2019-01-30T08:21:06.265Z,8.67
2019-01-30T08:24:10.722Z,15.83
2019-01-30T08:27:16.235Z,9.30
2019-01-30T08:30:28.026Z,12.00
2019-01-30T08:33:32.869Z,8.20
2019-01-30T08:36:37.312Z,13.43
2019-01-30T08:39:41.763Z,13.07
2019-01-30T08:42:46.442Z,10.67
2019-01-30T08:45:51.180Z,10.50
2019-01-30T08:48:55.920Z,10.13
2019-01-30T08:52:00.349Z,9.70
2019-01-30T08:55:07.592Z,8.13
2019-01-30T08:58:12.032Z,8.63
2019-01-30T09:01:16.773Z,6.87
2019-01-30T09:04:21.197Z,9.30
2019-01-30T09:07:25.931Z,11.60
2019-01-30T09:10:30.643Z,11.90
2019-01-30T09:13:35.390Z,11.80
2019-01-30T09:16:40.121Z,12.20
2019-01-30T09:19:44.563Z,10.63
2019-01-30T09:22:49.059Z,11.63
2019-01-30T09:25:55.458Z,8.97
2019-01-30T09:28:59.887Z,7.37
2019-01-30T09:32:04.393Z,8.93
2019-01-30T09:35:11.875Z,7.27
2019-01-30T09:38:16.624Z,7.53
2019-01-30T09:41:21.054Z,10.57
2019-01-30T09:44:25.767Z,7.27
2019-01-30T09:47:30.214Z,7.20
2019-01-30T09:50:35.126Z,5.17
2019-01-30T09:53:39.553Z,6.50
2019-01-30T09:56:43.998Z,5.07
2019-01-30T09:59:48.431Z,5.87
2019-01-30T10:02:52.863Z,3.53
2019-01-30T10:05:57.553Z,6.07
2019-01-30T10:09:01.987Z,3.63
2019-01-30T10:12:06.833Z,3.23
2019-01-30T10:15:16.195Z,4.40
2019-01-30T10:18:20.987Z,2.13
2019-01-30T10:21:25.428Z,3.00
2019-01-30T10:24:30.142Z,3.23
2019-01-30T10:27:34.589Z,2.03
2019-01-30T10:30:43.559Z,5.10
2019-01-30T10:33:48.321Z,2.87
2019-01-30T10:36:52.755Z,2.13
2019-01-30T10:39:57.482Z,1.90
2019-01-30T10:43:01.917Z,1.50
2019-01-30T10:46:06.631Z,2.20
2019-01-30T10:49:11.115Z,1.47
2019-01-30T10:52:15.557Z,1.67
2019-01-30T10:55:26.437Z,1.40
2019-01-30T10:58:31.185Z,1.83
2019-01-30T11:01:35.690Z,2.07
2019-01-30T11:04:40.445Z,2.47
2019-01-30T11:07:45.273Z,1.57
2019-01-30T11:10:50.969Z,0.97
2019-01-30T11:13:55.871Z,1.00
2019-01-30T11:17:00.309Z,1.10
2019-01-30T11:20:08.989Z,1.40
2019-01-30T11:23:13.485Z,3.80
2019-01-30T11:26:18.274Z,4.07
2019-01-30T11:29:22.707Z,3.27
2019-01-30T11:32:27.422Z,1.83
2019-01-30T11:35:32.267Z,1.87
2019-01-30T11:38:36.992Z,1.80
2019-01-30T11:41:41.826Z,0.53
2019-01-30T11:44:46.245Z,0.47
2019-01-30T11:47:50.679Z,1.73
2019-01-30T11:50:55.396Z,0.80
2019-01-30T11:54:00.135Z,0.80
2019-01-30T11:57:04.628Z,1.63
2019-01-30T12:00:15.842Z,2.43
2019-01-30T12:03:20.340Z,0.80
2019-01-30T12:06:25.105Z,3.07
2019-01-30T12:09:29.545Z,0.30
2019-01-30T12:12:34.252Z,0.70
2019-01-30T12:15:38.978Z,2.60
2019-01-30T12:18:43.414Z,0.53
2019-01-30T12:21:47.843Z,0.37
2019-01-30T12:24:52.281Z,0.20
2019-01-30T12:27:56.708Z,0.47
2019-01-30T12:31:01.139Z,2.10
2019-01-30T12:34:06.235Z,0.37
2019-01-30T12:37:10.665Z,0.30
2019-01-30T12:40:21.725Z,0.97
2019-01-30T12:43:26.471Z,0.40
2019-01-30T12:46:30.894Z,0.43
2019-01-30T12:49:35.329Z,1.13
2019-01-30T12:52:39.842Z,2.97
2019-01-30T12:55:44.275Z,0.90
2019-01-30T12:58:48.712Z,0.97
2019-01-30T13:01:53.145Z,1.90
2019-01-30T13:04:57.841Z,0.70
2019-01-30T13:08:02.274Z,2.80
2019-01-30T13:11:07.098Z,1.80
2019-01-30T13:14:11.529Z,1.57
2019-01-30T13:17:15.960Z,0.70
2019-01-30T13:20:22.406Z,0.70
2019-01-30T13:23:26.836Z,0.93
2019-01-30T13:26:31.572Z,2.00
2019-01-30T13:29:36.003Z,0.73
2019-01-30T13:32:40.460Z,1.90
2019-01-30T13:35:44.897Z,2.43
2019-01-30T13:38:49.579Z,0.40
2019-01-30T13:41:54.004Z,0.90
2019-01-30T13:44:58.447Z,0.40
2019-01-30T13:48:03.273Z,0.50
2019-01-30T13:51:07.982Z,0.40
2019-01-30T13:54:12.446Z,0.97
2019-01-30T13:57:17.138Z,1.83
2019-01-30T14:00:32.140Z,1.40
2019-01-30T14:03:36.581Z,0.30
2019-01-30T14:06:41.005Z,0.93
2019-01-30T14:09:45.439Z,0.73
2019-01-30T14:12:50.228Z,0.50
2019-01-30T14:15:54.654Z,0.47
2019-01-30T14:18:59.401Z,3.40
2019-01-30T14:22:04.138Z,0.73
2019-01-30T14:25:11.779Z,0.43
2019-01-30T14:28:16.445Z,1.90
2019-01-30T14:31:21.161Z,0.60
2019-01-30T14:34:25.921Z,0.63
2019-01-30T14:37:30.621Z,0.60
2019-01-30T14:40:35.061Z,1.10
2019-01-30T14:43:39.523Z,0.60
2019-01-30T14:46:44.233Z,1.03
2019-01-30T14:49:48.961Z,1.00
2019-01-30T14:52:53.669Z,0.93
2019-01-30T14:55:58.408Z,1.90
2019-01-30T14:59:02.823Z,1.43
2019-01-30T15:02:07.652Z,1.57
2019-01-30T15:05:21.855Z,0.50
2019-01-30T15:08:21.236Z,1.43
2019-01-30T15:11:25.752Z,0.60
2019-01-30T15:14:30.190Z,1.53
2019-01-30T15:17:34.892Z,1.10
2019-01-30T15:20:39.359Z,0.90
2019-01-30T15:23:43.760Z,1.60
2019-01-30T15:26:48.461Z,1.27
2019-01-30T15:29:53.224Z,1.50
2019-01-30T15:32:57.921Z,1.47
2019-01-30T15:36:02.352Z,2.30
2019-01-30T15:39:09.435Z,1.20
2019-01-30T15:42:14.166Z,1.93
2019-01-30T15:45:22.013Z,1.27
2019-01-30T15:48:26.443Z,1.63
2019-01-30T15:51:31.222Z,4.13
2019-01-30T15:54:35.957Z,1.50
2019-01-30T15:57:40.455Z,3.20
2019-01-30T16:01:01.356Z,1.33
2019-01-30T16:04:06.223Z,1.27
2019-01-30T16:07:10.955Z,7.13
2019-01-30T16:10:16.961Z,1.87
2019-01-30T16:13:21.366Z,1.23
2019-01-30T16:16:25.805Z,1.13
2019-01-30T16:19:30.460Z,0.90
2019-01-30T16:22:35.223Z,0.80
2019-01-30T16:25:39.954Z,1.07
2019-01-30T16:28:44.688Z,1.10
2019-01-30T16:31:49.412Z,2.37
2019-01-30T16:34:53.837Z,1.80
2019-01-30T16:37:58.278Z,3.73
2019-01-30T16:41:02.704Z,4.40
2019-01-30T16:44:07.477Z,3.23
2019-01-30T16:47:11.913Z,3.07
2019-01-30T16:50:17.915Z,3.27
2019-01-30T16:53:22.733Z,2.83
2019-01-30T16:56:27.167Z,3.13
2019-01-30T16:59:31.598Z,1.50
2019-01-30T17:02:36.038Z,1.97
2019-01-30T17:05:40.468Z,1.87
2019-01-30T17:08:45.158Z,1.53
2019-01-30T17:11:49.592Z,1.50
2019-01-30T17:14:54.315Z,1.63
2019-01-30T17:17:59.047Z,1.80
2019-01-30T17:21:03.473Z,1.27
2019-01-30T17:24:07.909Z,1.50
2019-01-30T17:27:12.339Z,2.13
2019-01-30T17:30:42.544Z,1.83
2019-01-30T17:33:46.985Z,2.50
2019-01-30T17:36:51.412Z,3.90
2019-01-30T17:39:56.339Z,3.17
2019-01-30T17:43:00.775Z,2.07
2019-01-30T17:46:05.685Z,2.53
2019-01-30T17:49:10.413Z,5.27
2019-01-30T17:52:14.847Z,3.87
2019-01-30T17:55:19.575Z,4.13
2019-01-30T17:58:24.005Z,6.33
2019-01-30T18:01:28.742Z,3.10
2019-01-30T18:04:33.456Z,4.03
2019-01-30T18:07:38.310Z,4.37
2019-01-30T18:10:42.743Z,2.77
2019-01-30T18:13:47.187Z,1.83
2019-01-30T18:16:51.625Z,7.00
2019-01-30T18:19:56.240Z,4.30
2019-01-30T18:23:00.675Z,10.50
2019-01-30T18:26:05.449Z,5.07
2019-01-30T18:29:10.272Z,4.53
2019-01-30T18:32:14.867Z,6.80
2019-01-30T18:35:19.550Z,4.67
2019-01-30T18:38:23.981Z,3.33
2019-01-30T18:41:28.687Z,8.63
2019-01-30T18:44:33.121Z,5.33
2019-01-30T18:47:37.841Z,3.43
2019-01-30T18:50:42.354Z,8.90
2019-01-30T18:53:47.101Z,11.57
2019-01-30T18:56:51.830Z,9.37
2019-01-30T18:59:56.564Z,6.40
2019-01-30T19:03:02.996Z,6.00
2019-01-30T19:06:07.608Z,9.93
2019-01-30T19:09:12.115Z,13.57
2019-01-30T19:12:16.816Z,62.70
2019-01-30T19:15:29.044Z,10.93
2019-01-30T19:18:33.762Z,6.90
2019-01-30T19:21:38.259Z,8.03
2019-01-30T19:24:43.015Z,5.50
2019-01-30T19:27:47.743Z,3.13
2019-01-30T19:30:52.180Z,4.77
2019-01-30T19:33:56.624Z,7.13
2019-01-30T19:37:03.679Z,2.93
2019-01-30T19:40:11.812Z,4.43
2019-01-30T19:43:16.324Z,4.70
2019-01-30T19:46:21.095Z,2.50
2019-01-30T19:49:25.775Z,5.70
2019-01-30T19:52:30.286Z,3.53
2019-01-30T19:55:34.730Z,4.90
2019-01-30T19:58:39.167Z,2.60
2019-01-30T20:01:43.876Z,5.73
2019-01-30T20:04:48.333Z,3.50
2019-01-30T20:07:52.829Z,5.13
2019-01-30T20:10:57.554Z,3.70
2019-01-30T20:14:02.389Z,3.60
2019-01-30T20:17:06.990Z,2.80
2019-01-30T20:20:17.603Z,4.60
2019-01-30T20:23:22.457Z,2.60
2019-01-30T20:26:27.148Z,8.43
2019-01-30T20:29:31.600Z,3.83
2019-01-30T20:32:36.023Z,4.77
2019-01-30T20:35:40.462Z,1.90
2019-01-30T20:38:44.889Z,6.07
2019-01-30T20:41:49.330Z,4.87
2019-01-30T20:44:53.783Z,2.53
2019-01-30T20:47:58.224Z,5.07
2019-01-30T20:51:02.956Z,4.90
2019-01-30T20:54:07.398Z,2.33
2019-01-30T20:57:12.114Z,3.30
2019-01-30T21:00:25.911Z,3.97
2019-01-30T21:03:30.683Z,6.27
2019-01-30T21:06:35.128Z,6.37
2019-01-30T21:09:39.829Z,4.10
2019-01-30T21:12:44.257Z,3.83
2019-01-30T21:15:48.795Z,3.60
2019-01-30T21:18:53.199Z,4.17
2019-01-30T21:21:57.930Z,3.63
2019-01-30T21:25:02.375Z,3.63
2019-01-30T21:28:06.872Z,3.40
2019-01-30T21:31:11.615Z,4.43
2019-01-30T21:34:16.345Z,4.53
2019-01-30T21:37:20.853Z,4.87
2019-01-30T21:40:25.295Z,3.23
2019-01-30T21:43:30.044Z,3.63
2019-01-30T21:46:34.470Z,5.13
2019-01-30T21:49:38.905Z,4.87
2019-01-30T21:52:43.604Z,6.27
2019-01-30T21:55:48.044Z,5.77
2019-01-30T21:58:52.467Z,4.13
2019-01-30T22:02:07.718Z,4.80
2019-01-30T22:05:03.652Z,4.63
2019-01-30T22:08:08.390Z,5.27
2019-01-30T22:11:12.862Z,3.97
2019-01-30T22:14:17.288Z,3.60
2019-01-30T22:17:21.726Z,2.93
2019-01-30T22:20:27.566Z,2.50
2019-01-30T22:23:31.996Z,4.87
2019-01-30T22:26:36.431Z,3.33
2019-01-30T22:29:40.868Z,6.23
2019-01-30T22:32:45.610Z,5.03
2019-01-30T22:35:50.048Z,5.00
2019-01-30T22:38:54.765Z,3.70
2019-01-30T22:42:02.371Z,6.93
2019-01-30T22:45:10.170Z,5.10
2019-01-30T22:48:14.900Z,2.37
2019-01-30T22:51:19.340Z,2.50
2019-01-30T22:54:24.057Z,6.20
2019-01-30T22:57:28.553Z,3.63
2019-01-30T23:01:02.718Z,4.00
2019-01-30T23:04:26.615Z,5.53
2019-01-30T23:07:35.763Z,4.13
2019-01-30T23:11:20.893Z,4.67
2019-01-30T23:14:26.241Z,7.97
2019-01-30T23:17:53.697Z,3.60
2019-01-30T23:21:09.078Z,6.53
2019-01-30T23:24:38.649Z,3.97
2019-01-30T23:27:48.141Z,3.97
2019-01-30T23:31:09.020Z,6.63
2019-01-30T23:34:45.891Z,4.20
2019-01-30T23:38:11.463Z,4.07
2019-01-30T23:41:35.123Z,4.93
2019-01-30T23:44:50.409Z,4.53
2019-01-30T23:48:30.972Z,5.13
2019-01-30T23:51:52.292Z,5.30
2019-01-30T23:55:04.421Z,5.13
2019-01-30T23:58:31.528Z,6.67
